Flight Track Log - Related Links

Times and Time Zones

All times are in EDT time to prevent confusion due to time zone crossing. See the FSR411 flight status page for this flight to view local times or setup timezone preferences in your user account.

Time Position Orientation Groundspeed Altitude Reporting Facility
EDT Latitude Longitude Course Direction KTS MPH feet Rate Location/Type
Sun 05:10:53 PM 30.2144 -81.8614 173° South 153 176 900  Level Jacksonville Center
Sun 05:11:36 PM 30.1808 -81.8569 173° South 226 260 2,400 2,633 Climbing Jacksonville Center
Sun 05:12:31 PM 30.2022 -81.9000 300° West 224 258 5,200 2,880 Climbing Jacksonville Center
Sun 05:12:51 PM 30.2208 -81.8997 North 233 268 6,000 3,100 Climbing Jacksonville Center
Sun 05:13:31 PM 30.2689 -81.9042 355° North 240 276 8,300 3,100 Climbing Jacksonville Center
Sun 05:13:51 PM 30.2897 -81.9064 355° North 241 277 9,100 2,475 Climbing Jacksonville Center
Sun 05:14:51 PM 30.3544 -81.9056 North 275 316 11,600 3,250 Climbing Jacksonville Center
Sun 05:15:51 PM 30.4589 -81.9142 356° North 297 342 15,600 3,400 Climbing Jacksonville Center
Sun 05:16:51 PM 30.5467 -81.9253 354° North 351 404 18,400 2,900 Climbing Jacksonville Center
Sun 05:17:51 PM 30.6492 -81.9314 357° North 356 410 21,400 2,300 Climbing Jacksonville Center
Sun 05:18:51 PM 30.7578 -81.9400 356° North 367 422 23,000 950 Climbing Jacksonville Center
Sun 05:19:51 PM 30.8811 -81.9508 356° North 407 468 23,300 1,450 Climbing Jacksonville Center
Sun 05:20:51 PM 31.0128 -81.9594 357° North 444 511 25,900 2,600 Climbing Jacksonville Center
Sun 05:21:51 PM 31.1381 -81.9703 356° North 454 522 28,500 2,150 Climbing Jacksonville Center
Sun 05:22:51 PM 31.2633 -81.9811 356° North 454 522 30,200 1,700 Climbing Jacksonville Center
Sun 05:23:51 PM 31.3886 -81.9847 359° North 454 522 31,900 1,650 Climbing Jacksonville Center
Sun 05:24:51 PM 31.5244 -81.9981 355° North 444 511 33,500 1,550 Climbing Jacksonville Center
Sun 05:25:51 PM 31.6458 -82.0164 353° North 444 511 35,000 1,250 Climbing Jacksonville Center
Sun 05:26:51 PM 31.7544 -82.0400 350° North 439 505 36,000 1,100 Climbing Jacksonville Center
Sun 05:27:51 PM 31.8922 -82.0508 356° North 439 505 37,200 1,088 Climbing Jacksonville Center
Sun 05:29:31 PM 32.1003 -82.0628 357° North 470 541 38,900 1,013 Climbing Atlanta Center
Sun 05:30:31 PM 32.2275 -82.0697 357° North 458 527 39,900 950 Climbing Atlanta Center
Sun 05:31:31 PM 32.3447 -82.0794 356° North 444 511 40,800 550 Climbing Atlanta Center
Sun 05:32:31 PM 32.4678 -82.0864 357° North 438 504 41,000 100 Climbing Atlanta Center
Sun 05:33:31 PM 32.5911 -82.0936 357° North 438 504 41,000  Level Atlanta Center
Sun 05:34:31 PM 32.7103 -82.1008 357° North 438 504 41,000  Level Atlanta Center
Sun 05:35:31 PM 32.8314 -82.1081 357° North 438 504 41,000  Level Atlanta Center
Sun 05:36:31 PM 32.9525 -82.1153 357° North 438 504 41,000  Level Atlanta Center
Sun 05:37:31 PM 33.0739 -82.1225 357° North 438 504 41,000  Level Atlanta Center
Sun 05:38:31 PM 33.1992 -82.1247 359° North 443 510 41,000  Level Atlanta Center
Sun 05:39:31 PM 33.3200 -82.1247 360° North 438 504 41,000  Level Atlanta Center
Sun 05:40:31 PM 33.4308 -82.1247 360° North 438 504 41,000  Level Atlanta Center
Sun 05:41:31 PM 33.5539 -82.1244 360° North 438 504 41,000  Level Atlanta Center
Sun 05:42:31 PM 33.6792 -82.1267 359° North 438 504 41,000  Level Atlanta Center
Sun 05:43:31 PM 33.8022 -82.1264 360° North 438 504 41,000  Level Atlanta Center
Sun 05:44:31 PM 33.9275 -82.1261 360° North 438 504 41,000  Level Atlanta Center
Sun 05:45:31 PM 34.0528 -82.1283 359° North 443 510 41,000  Level Atlanta Center
Sun 05:46:31 PM 34.1800 -82.1281 360° North 443 510 41,000  Level Atlanta Center
Sun 05:47:31 PM 34.3178 -82.1297 359° North 443 510 41,000  Level Atlanta Center
Sun 05:48:31 PM 34.4472 -82.1294 360° North 448 516 41,000  Level Atlanta Center
Sun 05:49:31 PM 34.5747 -82.1317 359° North 448 516 41,000  Level Atlanta Center
Sun 05:50:31 PM 34.7039 -82.1311 360° North 458 527 41,000  Level Atlanta Center
Sun 05:51:31 PM 34.8314 -82.1333 359° North 458 527 41,000  Level Atlanta Center
Sun 05:52:31 PM 34.9503 -82.1383 358° North 465 535 41,000  Level Atlanta Center
Sun 05:53:31 PM 35.0775 -82.1378 360° North 460 529 41,000  Level Atlanta Center
Sun 05:54:31 PM 35.2069 -82.1375 360° North 460 529 41,000  Level Atlanta Center
Sun 05:55:31 PM 35.3342 -82.1369 360° North 460 529 41,000  Level Atlanta Center
Sun 05:56:31 PM 35.4761 -82.1389 359° North 465 535 41,000  Level Atlanta Center
Sun 05:57:31 PM 35.6075 -82.1408 359° North 460 529 41,000  Level Atlanta Center
Sun 05:58:31 PM 35.7389 -82.1378 North 460 529 41,000  Level Atlanta Center
Sun 05:59:31 PM 35.8703 -82.1372 360° North 466 536 41,000  Level Atlanta Center
Sun 06:00:31 PM 35.9956 -82.1394 359° North 458 527 41,000  Level Atlanta Center
Sun 06:01:31 PM 36.1292 -82.1364 North 465 535 41,000  Level Atlanta Center
Sun 06:02:31 PM 36.2397 -82.1414 358° North 459 528 41,000  Level Atlanta Center
Sun 06:03:31 PM 36.3794 -82.1383 North 454 522 41,000  Level Atlanta Center
Sun 06:04:31 PM 36.5108 -82.1403 359° North 462 532 41,000  Level Atlanta Center
Sun 06:05:31 PM 36.6400 -82.1372 North 462 532 41,000  Level Atlanta Center
Sun 06:06:48 PM 36.8119 -82.1392 359° North 477 549 41,000  Level Indianapolis Center
Sun 06:07:50 PM 36.9411 -82.1394 360° North 469 540 41,000  Level Indianapolis Center
Sun 06:08:52 PM 37.0736 -82.1411 359° North 473 544 41,000  Level Indianapolis Center
Sun 06:09:54 PM 37.2058 -82.1417 360° North 475 547 41,000  Level Indianapolis Center
Sun 06:10:56 PM 37.3375 -82.1419 360° North 474 545 41,000  Level Indianapolis Center
Sun 06:11:58 PM 37.4903 -82.1419 360° North 471 542 41,000  Level Indianapolis Center
Sun 06:13:00 PM 37.6208 -82.1433 360° North 471 542 41,000  Level Indianapolis Center
Sun 06:14:02 PM 37.7519 -82.1436 360° North 471 542 41,000  Level Indianapolis Center
Sun 06:15:04 PM 37.8842 -82.1436 360° North 473 544 41,000  Level Indianapolis Center
Sun 06:16:06 PM 38.0169 -82.1433 360° North 474 545 41,000  Level Indianapolis Center
Sun 06:17:09 PM 38.1494 -82.1444 360° North 472 543 41,000  Level Indianapolis Center
Sun 06:18:11 PM 38.2825 -82.1447 360° North 474 545 41,000  Level Indianapolis Center
Sun 06:19:13 PM 38.4431 -82.1475 359° North 478 550 41,000  Level Indianapolis Center
Sun 06:20:15 PM 38.5767 -82.1486 360° North 474 545 41,000  Level Indianapolis Center
Sun 06:21:17 PM 38.7119 -82.1483 360° North 479 551 41,000  Level Indianapolis Center
Sun 06:22:19 PM 38.8453 -82.1494 360° North 476 548 41,000  Level Indianapolis Center
Sun 06:23:21 PM 38.9794 -82.1511 359° North 477 549 41,000 -339 Level Indianapolis Center
Sun 06:24:23 PM 39.1125 -82.1514 360° North 475 547 40,300 -968 Descending Indianapolis Center
Sun 06:25:25 PM 39.2464 -82.1514 360° North 478 550 39,000 -1,161 Descending Indianapolis Center
Sun 06:26:27 PM 39.3775 -82.1528 360° North 472 543 37,900 -1,210 Descending Indianapolis Center
Sun 06:27:29 PM 39.5294 -82.1525 360° North 462 532 36,500 -1,161 Descending Indianapolis Center
Sun 06:28:31 PM 39.6578 -82.1539 360° North 463 533 35,500 -968 Descending Indianapolis Center
Sun 06:29:33 PM 39.7892 -82.1544 360° North 469 540 34,500 -774 Descending Indianapolis Center
Sun 06:30:35 PM 39.9178 -82.1547 360° North 466 536 33,900 -774 Descending Indianapolis Center
Sun 06:31:37 PM 40.0433 -82.1556 360° North 456 525 32,900 -1,113 Descending Indianapolis Center
Sun 06:32:39 PM 40.1967 -82.1561 360° North 462 532 31,600 -1,306 Descending Indianapolis Center
Sun 06:33:41 PM 40.3242 -82.1558 360° North 452 520 30,200 -768 Descending Indianapolis Center
Sun 06:34:44 PM 40.4539 -82.1561 360° North 458 527 30,000 -96 Descending Indianapolis Center
Sun 06:35:46 PM 40.5844 -82.1578 359° North 463 533 30,000  Level Indianapolis Center
Sun 06:36:48 PM 40.7156 -82.1586 360° North 464 534 30,000  Level Indianapolis Center
Sun 06:37:50 PM 40.8464 -82.1592 360° North 465 535 30,000 -255 Level Indianapolis Center
Sun 06:38:22 PM 40.9111 -82.1567 North 465 535 29,600 -1,723 Descending Cleveland Center
Sun 06:39:24 PM 41.0614 -82.1575 360° North 458 527 27,300 -1,935 Descending Cleveland Center
Sun 06:40:26 PM 41.1886 -82.1597 359° North 452 520 25,600 -1,113 Descending Cleveland Center
Sun 06:41:28 PM 41.3139 -82.1600 360° North 443 510 25,000 -290 Descending Cleveland Center
Sun 06:42:30 PM 41.4403 -82.1614 360° North 445 512 25,000 -774 Level Cleveland Center
Sun 06:43:32 PM 41.5667 -82.1625 360° North 448 516 23,400 -2,496 Descending Cleveland Center
Sun 06:44:35 PM 41.6769 -82.1783 354° North 411 473 19,800 -3,216 Descending Cleveland Center
Sun 06:45:37 PM 41.7361 -82.2767 309° West 344 396 16,700 -3,226 Descending Cleveland Center
Sun 06:46:08 PM 41.7594 -82.3533 292° West 311 358 14,800 -2,806 Descending Cleveland Center
Sun 06:46:39 PM 41.7700 -82.3889 292° West 329 379 13,800 -2,824 Descending Cleveland Center
Sun 06:47:16 PM 41.7969 -82.4756 293° West 328 377 11,600 -3,000 Descending Cleveland Center
Sun 06:47:41 PM 41.8114 -82.5219 293° West 322 371 10,700 -1,475 Descending Cleveland Center
Sun 06:48:17 PM 41.8289 -82.5861 290° West 291 335 10,100 -677 Descending Cleveland Center
Sun 06:48:43 PM 41.8414 -82.6183 298° West 282 325 10,000  Descending Cleveland Center
Sun 06:49:17 PM 41.8736 -82.6617 315° West 269 310 10,100 -290 Climbing Cleveland Center
Sun 06:49:45 PM 41.9022 -82.6681 351° North 297 342 9,700 -1,574 Descending Cleveland Center
Sun 06:50:18 PM 41.9494 -82.6828 347° North 284 327 8,500 -1,839 Descending Cleveland Center
Sun 06:50:47 PM 41.9781 -82.6881 352° North 283 326 7,800 -1,672 Descending Cleveland Center
Sun 06:51:19 PM 42.0281 -82.6986 351° North 287 330 6,800 -1,548 Descending Cleveland Center
Sun 06:51:49 PM 42.0553 -82.7064 348° North 283 326 6,200 -1,200 Descending Cleveland Center
Sun 06:52:14 PM 42.0956 -82.7186 347° North 277 319 5,700 -968 Descending Cleveland Center
Sun 06:52:51 PM 42.1297 -82.7283 348° North 278 320 5,200 -493 Descending Cleveland Center
Sun 06:53:27 PM 42.1897 -82.7481 346° North 280 322 5,100 -194 Descending Cleveland Center
Sun 06:53:53 PM 42.2197 -82.7556 350° North 279 321 5,000  Descending Cleveland Center
Sun 06:54:28 PM 42.2611 -82.7742 342° North 268 308 5,100  Climbing Cleveland Center
Sun 06:54:55 PM 42.2889 -82.7872 341° North 269 310 5,000 -716 Descending Cleveland Center
Sun 06:55:35 PM 42.3400 -82.8156 338° Northwest 262 302 4,300 -947 Descending Cleveland Center
Sun 06:56:30 PM 42.3928 -82.8650 325° Northwest 237 273 3,500 -786 Descending Cleveland Center
Sun 06:56:59 PM 42.4061 -82.8808 319° Northwest 236 272 3,200 -764 Descending Cleveland Center
Sun 06:57:25 PM 42.4333 -82.9128 319° Northwest 206 237 2,800 -667 Descending Cleveland Center
Sun 06:58:02 PM 42.4464 -82.9333 311° West 212 244 2,500 -689 Descending Cleveland Center
Sun 06:58:26 PM 42.4672 -82.9628 314° West 169 194 2,100 -677 Descending Cleveland Center
Sun 06:59:04 PM 42.4683 -82.9942 273° West 177 204 1,800 -492 Descending Cleveland Center
Sun 06:59:27 PM 42.4636 -83.0131 251° West 130 150 1,600 -387 Descending Cleveland Center
Sun 07:00:06 PM 42.4478 -83.0311 220° Southwest 143 165 1,400 -444 Descending Cleveland Center
Sun 07:00:21 PM 42.4389 -83.0353 199° South 117 135 1,200 -484 Descending Cleveland Center
Sun 07:01:08 PM 42.4128 -83.0186 155° Southeast 142 163 900 -383 Descending Cleveland Center
Sun 07:03:00 PM 42.4093 -83.0102 90° East  Level Estimated
Sun 07:10:00 PM 42.4093 -83.0102 90° East  Level Estimated

Login

Don't have an account? Register now (free) for customized features, flight alerts, and more!